sensor_id;sensor_type;location;lat;lon;timestamp;temperature;humidity
22526;DHT22;11429;50.842;4.386;2022-12-11T00:01:26;2.70;99.90
22526;DHT22;11429;50.842;4.386;2022-12-11T00:03:56;2.60;99.90
22526;DHT22;11429;50.842;4.386;2022-12-11T00:06:22;2.60;99.90
22526;DHT22;11429;50.842;4.386;2022-12-11T00:08:51;2.60;99.90
22526;DHT22;11429;50.842;4.386;2022-12-11T00:11:18;2.60;99.90
22526;DHT22;11429;50.842;4.386;2022-12-11T00:13:44;2.70;99.90
22526;DHT22;11429;50.842;4.386;2022-12-11T00:16:10;2.60;99.90
22526;DHT22;11429;50.842;4.386;2022-12-11T00:18:36;2.60;99.90
22526;DHT22;11429;50.842;4.386;2022-12-11T00:21:04;2.50;99.90
22526;DHT22;11429;50.842;4.386;2022-12-11T00:23:30;2.50;99.90
22526;DHT22;11429;50.842;4.386;2022-12-11T00:25:56;2.50;99.90
22526;DHT22;11429;50.842;4.386;2022-12-11T00:28:23;2.60;99.90
22526;DHT22;11429;50.842;4.386;2022-12-11T00:30:49;2.50;99.90
22526;DHT22;11429;50.842;4.386;2022-12-11T00:33:15;2.60;99.90
22526;DHT22;11429;50.842;4.386;2022-12-11T00:35:44;2.90;99.90
22526;DHT22;11429;50.842;4.386;2022-12-11T00:38:15;2.90;99.90
22526;DHT22;11429;50.842;4.386;2022-12-11T00:40:41;2.70;99.90
22526;DHT22;11429;50.842;4.386;2022-12-11T00:43:07;2.70;99.90
22526;DHT22;11429;50.842;4.386;2022-12-11T00:45:40;2.60;99.90
22526;DHT22;11429;50.842;4.386;2022-12-11T00:48:06;2.50;99.90
22526;DHT22;11429;50.842;4.386;2022-12-11T00:50:33;2.50;99.90
22526;DHT22;11429;50.842;4.386;2022-12-11T00:52:59;2.50;99.90
22526;DHT22;11429;50.842;4.386;2022-12-11T00:55:25;2.50;99.90
22526;DHT22;11429;50.842;4.386;2022-12-11T00:57:53;2.50;99.90
22526;DHT22;11429;50.842;4.386;2022-12-11T01:00:19;2.60;99.90
22526;DHT22;11429;50.842;4.386;2022-12-11T01:02:45;2.60;99.90
22526;DHT22;11429;50.842;4.386;2022-12-11T01:05:11;2.50;99.90
22526;DHT22;11429;50.842;4.386;2022-12-11T01:07:36;2.30;99.90
22526;DHT22;11429;50.842;4.386;2022-12-11T01:10:03;2.30;99.90
22526;DHT22;11429;50.842;4.386;2022-12-11T01:12:47;2.40;99.90
22526;DHT22;11429;50.842;4.386;2022-12-11T01:15:13;2.40;99.90
22526;DHT22;11429;50.842;4.386;2022-12-11T01:17:38;2.40;99.90
22526;DHT22;11429;50.842;4.386;2022-12-11T01:20:04;2.30;99.90
22526;DHT22;11429;50.842;4.386;2022-12-11T01:22:31;2.40;99.90
22526;DHT22;11429;50.842;4.386;2022-12-11T01:24:56;2.60;99.90
22526;DHT22;11429;50.842;4.386;2022-12-11T01:27:22;2.70;99.90
22526;DHT22;11429;50.842;4.386;2022-12-11T01:29:49;2.60;99.90
22526;DHT22;11429;50.842;4.386;2022-12-11T01:32:15;2.50;99.90
22526;DHT22;11429;50.842;4.386;2022-12-11T01:34:41;2.70;99.90
22526;DHT22;11429;50.842;4.386;2022-12-11T01:37:06;2.70;99.90
22526;DHT22;11429;50.842;4.386;2022-12-11T01:39:32;2.80;99.90
22526;DHT22;11429;50.842;4.386;2022-12-11T01:41:59;3.00;99.90
22526;DHT22;11429;50.842;4.386;2022-12-11T01:46:51;3.00;99.90
22526;DHT22;11429;50.842;4.386;2022-12-11T01:49:18;2.90;99.90
22526;DHT22;11429;50.842;4.386;2022-12-11T01:52:02;2.80;99.90
22526;DHT22;11429;50.842;4.386;2022-12-11T01:54:30;2.90;99.90
22526;DHT22;11429;50.842;4.386;2022-12-11T01:56:59;2.80;99.90
22526;DHT22;11429;50.842;4.386;2022-12-11T01:59:28;2.60;99.90
22526;DHT22;11429;50.842;4.386;2022-12-11T02:02:07;2.60;99.90
22526;DHT22;11429;50.842;4.386;2022-12-11T02:04:36;2.50;99.90
22526;DHT22;11429;50.842;4.386;2022-12-11T02:07:02;2.50;99.90
22526;DHT22;11429;50.842;4.386;2022-12-11T02:09:31;2.50;99.90
22526;DHT22;11429;50.842;4.386;2022-12-11T02:17:06;2.50;99.90
22526;DHT22;11429;50.842;4.386;2022-12-11T02:20:10;2.50;99.90
22526;DHT22;11429;50.842;4.386;2022-12-11T02:22:46;2.60;99.90
22526;DHT22;11429;50.842;4.386;2022-12-11T02:30:41;2.60;99.90
22526;DHT22;11429;50.842;4.386;2022-12-11T02:33:10;2.40;99.90
22526;DHT22;11429;50.842;4.386;2022-12-11T02:35:40;2.40;99.90
22526;DHT22;11429;50.842;4.386;2022-12-11T02:38:12;2.40;99.90
22526;DHT22;11429;50.842;4.386;2022-12-11T02:40:41;2.30;99.90
22526;DHT22;11429;50.842;4.386;2022-12-11T02:43:12;2.40;99.90
22526;DHT22;11429;50.842;4.386;2022-12-11T02:45:40;2.40;99.90
22526;DHT22;11429;50.842;4.386;2022-12-11T02:48:08;2.50;99.90
22526;DHT22;11429;50.842;4.386;2022-12-11T02:50:38;2.40;99.90
22526;DHT22;11429;50.842;4.386;2022-12-11T02:53:07;2.40;99.90
22526;DHT22;11429;50.842;4.386;2022-12-11T02:55:35;2.50;99.90
22526;DHT22;11429;50.842;4.386;2022-12-11T03:00:28;2.40;99.90
22526;DHT22;11429;50.842;4.386;2022-12-11T03:02:53;2.40;99.90
22526;DHT22;11429;50.842;4.386;2022-12-11T03:05:19;2.40;99.90
22526;DHT22;11429;50.842;4.386;2022-12-11T03:07:45;2.40;99.90
22526;DHT22;11429;50.842;4.386;2022-12-11T03:10:13;2.30;99.90
22526;DHT22;11429;50.842;4.386;2022-12-11T03:12:42;2.30;99.90
22526;DHT22;11429;50.842;4.386;2022-12-11T03:15:11;2.30;99.90
22526;DHT22;11429;50.842;4.386;2022-12-11T03:20:35;2.20;99.90
22526;DHT22;11429;50.842;4.386;2022-12-11T03:31:08;2.30;99.90
22526;DHT22;11429;50.842;4.386;2022-12-11T03:33:40;2.30;99.90
22526;DHT22;11429;50.842;4.386;2022-12-11T03:36:10;2.50;99.90
22526;DHT22;11429;50.842;4.386;2022-12-11T03:38:43;2.50;99.90
22526;DHT22;11429;50.842;4.386;2022-12-11T03:41:11;2.30;99.90
22526;DHT22;11429;50.842;4.386;2022-12-11T03:43:39;2.20;99.90
22526;DHT22;11429;50.842;4.386;2022-12-11T03:46:07;2.20;99.90
22526;DHT22;11429;50.842;4.386;2022-12-11T03:48:37;2.10;99.90
22526;DHT22;11429;50.842;4.386;2022-12-11T03:51:06;2.10;99.90
22526;DHT22;11429;50.842;4.386;2022-12-11T03:53:34;2.10;99.90
22526;DHT22;11429;50.842;4.386;2022-12-11T03:56:02;2.10;99.90
22526;DHT22;11429;50.842;4.386;2022-12-11T03:58:28;2.10;99.90
22526;DHT22;11429;50.842;4.386;2022-12-11T04:00:54;2.10;99.90
22526;DHT22;11429;50.842;4.386;2022-12-11T04:03:20;2.10;99.90
22526;DHT22;11429;50.842;4.386;2022-12-11T04:05:48;2.20;99.90
22526;DHT22;11429;50.842;4.386;2022-12-11T04:08:15;2.20;99.90
22526;DHT22;11429;50.842;4.386;2022-12-11T04:10:41;2.20;99.90
22526;DHT22;11429;50.842;4.386;2022-12-11T04:13:08;2.10;99.90
22526;DHT22;11429;50.842;4.386;2022-12-11T04:15:34;2.20;99.90
22526;DHT22;11429;50.842;4.386;2022-12-11T04:18:00;2.20;99.90
22526;DHT22;11429;50.842;4.386;2022-12-11T04:20:44;2.20;99.90
22526;DHT22;11429;50.842;4.386;2022-12-11T04:23:28;2.10;99.90
22526;DHT22;11429;50.842;4.386;2022-12-11T04:26:18;2.10;99.90
22526;DHT22;11429;50.842;4.386;2022-12-11T04:28:46;2.30;99.90
22526;DHT22;11429;50.842;4.386;2022-12-11T04:31:14;2.20;99.90
22526;DHT22;11429;50.842;4.386;2022-12-11T04:33:40;2.30;99.90
22526;DHT22;11429;50.842;4.386;2022-12-11T04:36:06;2.20;99.90
22526;DHT22;11429;50.842;4.386;2022-12-11T04:38:32;2.20;99.90
22526;DHT22;11429;50.842;4.386;2022-12-11T04:41:01;2.20;99.90
22526;DHT22;11429;50.842;4.386;2022-12-11T04:43:28;2.10;99.90
22526;DHT22;11429;50.842;4.386;2022-12-11T04:46:04;2.10;99.90
22526;DHT22;11429;50.842;4.386;2022-12-11T04:48:31;2.10;99.90
22526;DHT22;11429;50.842;4.386;2022-12-11T04:50:57;2.20;99.90
22526;DHT22;11429;50.842;4.386;2022-12-11T04:53:24;2.20;99.90
22526;DHT22;11429;50.842;4.386;2022-12-11T04:55:51;2.30;99.90
22526;DHT22;11429;50.842;4.386;2022-12-11T04:58:17;2.30;99.90
22526;DHT22;11429;50.842;4.386;2022-12-11T05:00:42;2.30;99.90
22526;DHT22;11429;50.842;4.386;2022-12-11T05:03:14;2.20;99.90
22526;DHT22;11429;50.842;4.386;2022-12-11T05:05:40;2.20;99.90
22526;DHT22;11429;50.842;4.386;2022-12-11T05:08:12;2.30;99.90
22526;DHT22;11429;50.842;4.386;2022-12-11T05:10:37;2.30;99.90
22526;DHT22;11429;50.842;4.386;2022-12-11T05:13:03;2.20;99.90
22526;DHT22;11429;50.842;4.386;2022-12-11T05:15:33;2.20;99.90
22526;DHT22;11429;50.842;4.386;2022-12-11T05:17:59;2.20;99.90
22526;DHT22;11429;50.842;4.386;2022-12-11T05:20:24;2.20;99.90
22526;DHT22;11429;50.842;4.386;2022-12-11T05:22:50;2.20;99.90
22526;DHT22;11429;50.842;4.386;2022-12-11T05:25:16;2.20;99.90
22526;DHT22;11429;50.842;4.386;2022-12-11T05:27:42;2.30;99.90
22526;DHT22;11429;50.842;4.386;2022-12-11T05:30:08;2.20;99.90
22526;DHT22;11429;50.842;4.386;2022-12-11T05:32:35;2.30;99.90
22526;DHT22;11429;50.842;4.386;2022-12-11T05:35:00;2.20;99.90
22526;DHT22;11429;50.842;4.386;2022-12-11T05:37:28;2.20;99.90
22526;DHT22;11429;50.842;4.386;2022-12-11T05:39:55;2.20;99.90
22526;DHT22;11429;50.842;4.386;2022-12-11T05:42:20;2.20;99.90
22526;DHT22;11429;50.842;4.386;2022-12-11T05:44:48;2.20;99.90
22526;DHT22;11429;50.842;4.386;2022-12-11T05:47:14;2.30;99.90
22526;DHT22;11429;50.842;4.386;2022-12-11T05:49:45;2.30;99.90
22526;DHT22;11429;50.842;4.386;2022-12-11T05:52:12;2.20;99.90
22526;DHT22;11429;50.842;4.386;2022-12-11T05:54:39;2.20;99.90
22526;DHT22;11429;50.842;4.386;2022-12-11T05:57:05;2.20;99.90
22526;DHT22;11429;50.842;4.386;2022-12-11T05:59:31;2.10;99.90
22526;DHT22;11429;50.842;4.386;2022-12-11T06:01:57;2.10;99.90
22526;DHT22;11429;50.842;4.386;2022-12-11T06:04:22;2.10;99.90
22526;DHT22;11429;50.842;4.386;2022-12-11T06:06:48;2.10;99.90
22526;DHT22;11429;50.842;4.386;2022-12-11T06:09:15;2.10;99.90
22526;DHT22;11429;50.842;4.386;2022-12-11T06:11:41;2.10;99.90
22526;DHT22;11429;50.842;4.386;2022-12-11T06:14:09;2.00;99.90
22526;DHT22;11429;50.842;4.386;2022-12-11T06:16:35;2.00;99.90
22526;DHT22;11429;50.842;4.386;2022-12-11T06:19:01;2.00;99.90
22526;DHT22;11429;50.842;4.386;2022-12-11T06:21:33;2.00;99.90
22526;DHT22;11429;50.842;4.386;2022-12-11T06:24:01;1.90;99.90
22526;DHT22;11429;50.842;4.386;2022-12-11T06:26:28;1.90;99.90
22526;DHT22;11429;50.842;4.386;2022-12-11T06:28:55;1.90;99.90
22526;DHT22;11429;50.842;4.386;2022-12-11T06:31:21;1.90;99.90
22526;DHT22;11429;50.842;4.386;2022-12-11T06:33:47;1.90;99.90
22526;DHT22;11429;50.842;4.386;2022-12-11T06:36:15;1.90;99.90
22526;DHT22;11429;50.842;4.386;2022-12-11T06:38:41;1.90;99.90
22526;DHT22;11429;50.842;4.386;2022-12-11T06:41:09;1.90;99.90
22526;DHT22;11429;50.842;4.386;2022-12-11T06:43:37;1.90;99.90
22526;DHT22;11429;50.842;4.386;2022-12-11T06:46:13;1.90;99.90
22526;DHT22;11429;50.842;4.386;2022-12-11T06:48:43;1.90;99.90
22526;DHT22;11429;50.842;4.386;2022-12-11T06:51:21;1.90;99.90
22526;DHT22;11429;50.842;4.386;2022-12-11T06:54:00;2.00;99.90
22526;DHT22;11429;50.842;4.386;2022-12-11T06:56:32;1.90;99.90
22526;DHT22;11429;50.842;4.386;2022-12-11T06:58:58;1.90;99.90
22526;DHT22;11429;50.842;4.386;2022-12-11T07:04:41;2.00;99.90
22526;DHT22;11429;50.842;4.386;2022-12-11T07:07:15;2.00;99.90
22526;DHT22;11429;50.842;4.386;2022-12-11T07:09:44;2.30;99.90
22526;DHT22;11429;50.842;4.386;2022-12-11T07:12:16;2.40;99.90
22526;DHT22;11429;50.842;4.386;2022-12-11T07:14:46;2.20;99.90
22526;DHT22;11429;50.842;4.386;2022-12-11T07:17:18;2.10;99.90
22526;DHT22;11429;50.842;4.386;2022-12-11T07:19:45;2.10;99.90
22526;DHT22;11429;50.842;4.386;2022-12-11T07:22:20;2.10;99.90
22526;DHT22;11429;50.842;4.386;2022-12-11T07:24:58;2.00;99.90
22526;DHT22;11429;50.842;4.386;2022-12-11T07:27:24;2.10;99.90
22526;DHT22;11429;50.842;4.386;2022-12-11T07:30:06;2.20;99.90
22526;DHT22;11429;50.842;4.386;2022-12-11T07:32:58;2.10;99.90
22526;DHT22;11429;50.842;4.386;2022-12-11T07:35:27;2.00;99.90
22526;DHT22;11429;50.842;4.386;2022-12-11T07:37:52;2.10;99.90
22526;DHT22;11429;50.842;4.386;2022-12-11T07:40:18;2.10;99.90
22526;DHT22;11429;50.842;4.386;2022-12-11T07:42:44;2.10;99.90
22526;DHT22;11429;50.842;4.386;2022-12-11T07:45:10;2.00;99.90
22526;DHT22;11429;50.842;4.386;2022-12-11T07:47:44;1.90;99.90
22526;DHT22;11429;50.842;4.386;2022-12-11T07:50:10;2.00;99.90
22526;DHT22;11429;50.842;4.386;2022-12-11T07:52:36;2.00;99.90
22526;DHT22;11429;50.842;4.386;2022-12-11T07:55:02;2.10;99.90
22526;DHT22;11429;50.842;4.386;2022-12-11T07:57:28;2.10;99.90
22526;DHT22;11429;50.842;4.386;2022-12-11T07:59:57;2.10;99.90
22526;DHT22;11429;50.842;4.386;2022-12-11T08:02:23;2.00;99.90
22526;DHT22;11429;50.842;4.386;2022-12-11T08:04:50;2.10;99.90
22526;DHT22;11429;50.842;4.386;2022-12-11T08:07:15;2.10;99.90
22526;DHT22;11429;50.842;4.386;2022-12-11T08:09:41;2.00;99.90
22526;DHT22;11429;50.842;4.386;2022-12-11T08:12:07;1.90;99.90
22526;DHT22;11429;50.842;4.386;2022-12-11T08:14:32;1.90;99.90
22526;DHT22;11429;50.842;4.386;2022-12-11T08:17:01;1.90;99.90
22526;DHT22;11429;50.842;4.386;2022-12-11T08:19:30;1.80;99.90
22526;DHT22;11429;50.842;4.386;2022-12-11T08:21:55;1.90;99.90
22526;DHT22;11429;50.842;4.386;2022-12-11T08:24:21;2.00;99.90
22526;DHT22;11429;50.842;4.386;2022-12-11T08:26:47;1.90;99.90
22526;DHT22;11429;50.842;4.386;2022-12-11T08:29:13;1.90;99.90
22526;DHT22;11429;50.842;4.386;2022-12-11T08:31:40;2.00;99.90
22526;DHT22;11429;50.842;4.386;2022-12-11T08:34:06;1.90;99.90
22526;DHT22;11429;50.842;4.386;2022-12-11T08:36:32;1.90;99.90
22526;DHT22;11429;50.842;4.386;2022-12-11T08:38:58;1.90;99.90
22526;DHT22;11429;50.842;4.386;2022-12-11T08:41:27;1.80;99.90
22526;DHT22;11429;50.842;4.386;2022-12-11T08:44:30;1.80;99.90
22526;DHT22;11429;50.842;4.386;2022-12-11T08:46:55;1.90;99.90
22526;DHT22;11429;50.842;4.386;2022-12-11T08:49:21;1.90;99.90
22526;DHT22;11429;50.842;4.386;2022-12-11T08:51:47;2.10;99.90
22526;DHT22;11429;50.842;4.386;2022-12-11T08:54:13;2.10;99.90
22526;DHT22;11429;50.842;4.386;2022-12-11T08:56:41;2.10;99.90
22526;DHT22;11429;50.842;4.386;2022-12-11T08:59:17;2.00;99.90
22526;DHT22;11429;50.842;4.386;2022-12-11T09:01:43;2.10;99.90
22526;DHT22;11429;50.842;4.386;2022-12-11T09:04:12;2.00;99.90
22526;DHT22;11429;50.842;4.386;2022-12-11T09:06:38;2.00;99.90
22526;DHT22;11429;50.842;4.386;2022-12-11T09:09:03;2.10;99.90
22526;DHT22;11429;50.842;4.386;2022-12-11T09:11:34;2.10;99.90
22526;DHT22;11429;50.842;4.386;2022-12-11T09:14:00;2.20;99.90
22526;DHT22;11429;50.842;4.386;2022-12-11T09:16:30;2.20;99.90
22526;DHT22;11429;50.842;4.386;2022-12-11T09:18:57;2.10;99.90
22526;DHT22;11429;50.842;4.386;2022-12-11T09:21:27;2.00;99.90
22526;DHT22;11429;50.842;4.386;2022-12-11T09:23:57;2.10;99.90
22526;DHT22;11429;50.842;4.386;2022-12-11T09:26:24;1.90;99.90
22526;DHT22;11429;50.842;4.386;2022-12-11T09:28:50;1.90;99.90
22526;DHT22;11429;50.842;4.386;2022-12-11T09:31:24;2.10;99.90
22526;DHT22;11429;50.842;4.386;2022-12-11T09:33:53;2.10;99.90
22526;DHT22;11429;50.842;4.386;2022-12-11T09:36:19;2.00;99.90
22526;DHT22;11429;50.842;4.386;2022-12-11T09:38:45;2.10;99.90
22526;DHT22;11429;50.842;4.386;2022-12-11T09:44:50;2.30;99.90
22526;DHT22;11429;50.842;4.386;2022-12-11T09:47:35;2.30;99.90
22526;DHT22;11429;50.842;4.386;2022-12-11T09:55:05;2.20;99.90
22526;DHT22;11429;50.842;4.386;2022-12-11T09:58:01;2.20;99.90
22526;DHT22;11429;50.842;4.386;2022-12-11T10:00:39;2.30;99.90
22526;DHT22;11429;50.842;4.386;2022-12-11T10:18:28;2.40;99.90
22526;DHT22;11429;50.842;4.386;2022-12-11T10:20:56;2.40;99.90
22526;DHT22;11429;50.842;4.386;2022-12-11T10:23:55;2.50;99.90
22526;DHT22;11429;50.842;4.386;2022-12-11T10:26:22;2.50;99.90
22526;DHT22;11429;50.842;4.386;2022-12-11T10:29:12;2.50;99.90
22526;DHT22;11429;50.842;4.386;2022-12-11T10:32:02;2.50;99.90
22526;DHT22;11429;50.842;4.386;2022-12-11T10:34:41;2.50;99.90
22526;DHT22;11429;50.842;4.386;2022-12-11T10:37:14;2.60;99.90
22526;DHT22;11429;50.842;4.386;2022-12-11T10:39:42;2.50;99.90
22526;DHT22;11429;50.842;4.386;2022-12-11T10:42:19;2.60;99.90
22526;DHT22;11429;50.842;4.386;2022-12-11T10:45:00;2.70;99.90
22526;DHT22;11429;50.842;4.386;2022-12-11T10:47:27;2.70;99.90
22526;DHT22;11429;50.842;4.386;2022-12-11T10:49:56;2.60;99.90
22526;DHT22;11429;50.842;4.386;2022-12-11T10:52:28;2.60;99.90
22526;DHT22;11429;50.842;4.386;2022-12-11T10:55:20;2.60;99.90
22526;DHT22;11429;50.842;4.386;2022-12-11T10:57:57;2.40;99.90
22526;DHT22;11429;50.842;4.386;2022-12-11T11:00:34;2.50;99.90
22526;DHT22;11429;50.842;4.386;2022-12-11T11:03:04;2.80;99.90
22526;DHT22;11429;50.842;4.386;2022-12-11T11:05:35;3.10;99.90
22526;DHT22;11429;50.842;4.386;2022-12-11T11:08:21;3.50;99.90
22526;DHT22;11429;50.842;4.386;2022-12-11T11:10:53;3.70;99.90
22526;DHT22;11429;50.842;4.386;2022-12-11T11:13:21;3.90;99.90
22526;DHT22;11429;50.842;4.386;2022-12-11T11:15:47;4.10;99.90
22526;DHT22;11429;50.842;4.386;2022-12-11T11:18:23;4.20;99.90
22526;DHT22;11429;50.842;4.386;2022-12-11T11:20:51;5.30;99.90
22526;DHT22;11429;50.842;4.386;2022-12-11T11:23:18;5.70;99.90
22526;DHT22;11429;50.842;4.386;2022-12-11T11:26:06;6.40;99.90
22526;DHT22;11429;50.842;4.386;2022-12-11T11:28:55;6.50;99.90
22526;DHT22;11429;50.842;4.386;2022-12-11T11:31:57;6.00;99.90
22526;DHT22;11429;50.842;4.386;2022-12-11T11:34:25;7.40;99.90
22526;DHT22;11429;50.842;4.386;2022-12-11T11:36:58;6.40;99.90
22526;DHT22;11429;50.842;4.386;2022-12-11T11:39:41;5.70;99.90
22526;DHT22;11429;50.842;4.386;2022-12-11T11:42:25;5.30;99.90
22526;DHT22;11429;50.842;4.386;2022-12-11T11:45:22;4.90;99.90
22526;DHT22;11429;50.842;4.386;2022-12-11T11:51:23;5.40;99.90
22526;DHT22;11429;50.842;4.386;2022-12-11T11:53:54;5.50;99.90
22526;DHT22;11429;50.842;4.386;2022-12-11T11:56:32;5.00;99.90
22526;DHT22;11429;50.842;4.386;2022-12-11T12:01:53;4.50;99.90
22526;DHT22;11429;50.842;4.386;2022-12-11T12:04:21;4.20;99.90
22526;DHT22;11429;50.842;4.386;2022-12-11T12:17:51;4.00;99.90
22526;DHT22;11429;50.842;4.386;2022-12-11T12:23:24;3.70;99.90
22526;DHT22;11429;50.842;4.386;2022-12-11T12:31:50;4.10;99.90
22526;DHT22;11429;50.842;4.386;2022-12-11T12:48:49;3.30;99.90
22526;DHT22;11429;50.842;4.386;2022-12-11T12:51:17;3.10;99.90
22526;DHT22;11429;50.842;4.386;2022-12-11T12:53:53;2.90;99.90
22526;DHT22;11429;50.842;4.386;2022-12-11T12:56:21;2.80;99.90
22526;DHT22;11429;50.842;4.386;2022-12-11T12:58:49;2.90;99.90
22526;DHT22;11429;50.842;4.386;2022-12-11T13:04:02;2.80;99.90
22526;DHT22;11429;50.842;4.386;2022-12-11T13:06:43;2.90;99.90
22526;DHT22;11429;50.842;4.386;2022-12-11T13:11:35;3.20;99.90
22526;DHT22;11429;50.842;4.386;2022-12-11T13:14:24;3.30;99.90
22526;DHT22;11429;50.842;4.386;2022-12-11T13:19:45;3.30;99.90
22526;DHT22;11429;50.842;4.386;2022-12-11T13:24:58;3.10;99.90
22526;DHT22;11429;50.842;4.386;2022-12-11T13:27:35;3.00;99.90
22526;DHT22;11429;50.842;4.386;2022-12-11T13:32:53;3.00;99.90
22526;DHT22;11429;50.842;4.386;2022-12-11T13:35:21;3.10;99.90
22526;DHT22;11429;50.842;4.386;2022-12-11T13:37:49;3.10;99.90
22526;DHT22;11429;50.842;4.386;2022-12-11T13:40:26;3.00;99.90
22526;DHT22;11429;50.842;4.386;2022-12-11T13:45:27;2.70;99.90
22526;DHT22;11429;50.842;4.386;2022-12-11T13:47:58;2.70;99.90
22526;DHT22;11429;50.842;4.386;2022-12-11T13:50:29;2.60;99.90
22526;DHT22;11429;50.842;4.386;2022-12-11T13:52:58;2.50;99.90
22526;DHT22;11429;50.842;4.386;2022-12-11T13:55:32;2.60;99.90
22526;DHT22;11429;50.842;4.386;2022-12-11T13:57:59;2.60;99.90
22526;DHT22;11429;50.842;4.386;2022-12-11T14:00:30;2.70;99.90
22526;DHT22;11429;50.842;4.386;2022-12-11T14:03:00;2.70;99.90
22526;DHT22;11429;50.842;4.386;2022-12-11T14:05:26;2.60;99.90
22526;DHT22;11429;50.842;4.386;2022-12-11T14:07:56;2.60;99.90
22526;DHT22;11429;50.842;4.386;2022-12-11T14:10:30;3.00;99.90
22526;DHT22;11429;50.842;4.386;2022-12-11T14:13:14;2.90;99.90
22526;DHT22;11429;50.842;4.386;2022-12-11T14:15:44;2.70;99.90
22526;DHT22;11429;50.842;4.386;2022-12-11T14:18:23;2.90;99.90
22526;DHT22;11429;50.842;4.386;2022-12-11T14:21:05;2.80;99.90
22526;DHT22;11429;50.842;4.386;2022-12-11T14:23:32;2.80;99.90
22526;DHT22;11429;50.842;4.386;2022-12-11T14:28:27;2.80;99.90
22526;DHT22;11429;50.842;4.386;2022-12-11T14:30:56;2.80;99.90
22526;DHT22;11429;50.842;4.386;2022-12-11T14:33:34;2.80;99.90
22526;DHT22;11429;50.842;4.386;2022-12-11T14:36:02;2.90;99.90
22526;DHT22;11429;50.842;4.386;2022-12-11T14:38:35;3.00;99.90
22526;DHT22;11429;50.842;4.386;2022-12-11T14:41:06;2.90;99.90
22526;DHT22;11429;50.842;4.386;2022-12-11T14:43:37;3.00;99.90
22526;DHT22;11429;50.842;4.386;2022-12-11T14:46:15;3.00;99.90
22526;DHT22;11429;50.842;4.386;2022-12-11T14:48:56;3.10;99.90
22526;DHT22;11429;50.842;4.386;2022-12-11T14:51:28;2.80;99.90
22526;DHT22;11429;50.842;4.386;2022-12-11T14:53:55;2.80;99.90
22526;DHT22;11429;50.842;4.386;2022-12-11T14:56:26;2.70;99.90
22526;DHT22;11429;50.842;4.386;2022-12-11T14:59:03;2.60;99.90
22526;DHT22;11429;50.842;4.386;2022-12-11T15:01:33;2.60;99.90
22526;DHT22;11429;50.842;4.386;2022-12-11T15:04:22;2.70;99.90
22526;DHT22;11429;50.842;4.386;2022-12-11T15:06:50;2.80;99.90
22526;DHT22;11429;50.842;4.386;2022-12-11T15:09:23;2.80;99.90
22526;DHT22;11429;50.842;4.386;2022-12-11T15:11:50;2.80;99.90
22526;DHT22;11429;50.842;4.386;2022-12-11T15:14:21;2.70;99.90
22526;DHT22;11429;50.842;4.386;2022-12-11T15:16:48;2.70;99.90
22526;DHT22;11429;50.842;4.386;2022-12-11T15:19:31;2.70;99.90
22526;DHT22;11429;50.842;4.386;2022-12-11T15:22:04;2.60;99.90
22526;DHT22;11429;50.842;4.386;2022-12-11T15:24:41;2.60;99.90
22526;DHT22;11429;50.842;4.386;2022-12-11T15:27:37;2.70;99.90
22526;DHT22;11429;50.842;4.386;2022-12-11T15:32:51;2.80;99.90
22526;DHT22;11429;50.842;4.386;2022-12-11T15:35:26;2.80;99.90
22526;DHT22;11429;50.842;4.386;2022-12-11T15:37:56;2.70;99.90
22526;DHT22;11429;50.842;4.386;2022-12-11T15:40:23;2.80;99.90
22526;DHT22;11429;50.842;4.386;2022-12-11T15:42:49;2.90;99.90
22526;DHT22;11429;50.842;4.386;2022-12-11T15:45:25;2.80;99.90
22526;DHT22;11429;50.842;4.386;2022-12-11T15:47:53;2.80;99.90
22526;DHT22;11429;50.842;4.386;2022-12-11T15:50:27;2.90;99.90
22526;DHT22;11429;50.842;4.386;2022-12-11T15:52:54;2.80;99.90
22526;DHT22;11429;50.842;4.386;2022-12-11T15:55:22;2.80;99.90
22526;DHT22;11429;50.842;4.386;2022-12-11T15:57:54;2.90;99.90
22526;DHT22;11429;50.842;4.386;2022-12-11T16:00:21;2.80;99.90
22526;DHT22;11429;50.842;4.386;2022-12-11T16:02:48;2.90;99.90
22526;DHT22;11429;50.842;4.386;2022-12-11T16:05:14;2.90;99.90
22526;DHT22;11429;50.842;4.386;2022-12-11T16:07:41;2.80;99.90
22526;DHT22;11429;50.842;4.386;2022-12-11T16:10:11;2.70;99.90
22526;DHT22;11429;50.842;4.386;2022-12-11T16:12:38;2.80;99.90
22526;DHT22;11429;50.842;4.386;2022-12-11T16:15:04;2.90;99.90
22526;DHT22;11429;50.842;4.386;2022-12-11T16:17:29;2.80;99.90
22526;DHT22;11429;50.842;4.386;2022-12-11T16:19:55;2.80;99.90
22526;DHT22;11429;50.842;4.386;2022-12-11T16:22:21;2.80;99.90
22526;DHT22;11429;50.842;4.386;2022-12-11T16:24:47;3.00;99.90
22526;DHT22;11429;50.842;4.386;2022-12-11T16:27:13;2.90;99.90
22526;DHT22;11429;50.842;4.386;2022-12-11T16:29:40;2.90;99.90
22526;DHT22;11429;50.842;4.386;2022-12-11T16:32:07;2.90;99.90
22526;DHT22;11429;50.842;4.386;2022-12-11T16:34:34;2.80;99.90
22526;DHT22;11429;50.842;4.386;2022-12-11T16:37:00;2.80;99.90
22526;DHT22;11429;50.842;4.386;2022-12-11T16:39:26;2.90;99.90
22526;DHT22;11429;50.842;4.386;2022-12-11T16:41:53;2.90;99.90
22526;DHT22;11429;50.842;4.386;2022-12-11T16:44:21;3.00;99.90
22526;DHT22;11429;50.842;4.386;2022-12-11T16:46:47;2.90;99.90
22526;DHT22;11429;50.842;4.386;2022-12-11T16:49:13;3.00;99.90
22526;DHT22;11429;50.842;4.386;2022-12-11T16:51:39;3.00;99.90
22526;DHT22;11429;50.842;4.386;2022-12-11T16:54:05;3.00;99.90
22526;DHT22;11429;50.842;4.386;2022-12-11T16:56:31;2.90;99.90
22526;DHT22;11429;50.842;4.386;2022-12-11T16:58:57;2.80;99.90
22526;DHT22;11429;50.842;4.386;2022-12-11T17:01:22;2.70;99.90
22526;DHT22;11429;50.842;4.386;2022-12-11T17:03:48;2.70;99.90
22526;DHT22;11429;50.842;4.386;2022-12-11T17:06:16;2.70;99.90
22526;DHT22;11429;50.842;4.386;2022-12-11T17:08:42;2.60;99.90
22526;DHT22;11429;50.842;4.386;2022-12-11T17:11:10;2.50;99.90
22526;DHT22;11429;50.842;4.386;2022-12-11T17:13:37;2.50;99.90
22526;DHT22;11429;50.842;4.386;2022-12-11T17:16:04;2.50;99.90
22526;DHT22;11429;50.842;4.386;2022-12-11T17:18:31;2.40;99.90
22526;DHT22;11429;50.842;4.386;2022-12-11T17:20:56;2.40;99.90
22526;DHT22;11429;50.842;4.386;2022-12-11T17:23:23;2.30;99.90
22526;DHT22;11429;50.842;4.386;2022-12-11T17:25:48;2.30;99.90
22526;DHT22;11429;50.842;4.386;2022-12-11T17:28:14;2.30;99.90
22526;DHT22;11429;50.842;4.386;2022-12-11T17:30:41;2.30;99.90
22526;DHT22;11429;50.842;4.386;2022-12-11T17:33:08;2.20;99.90
22526;DHT22;11429;50.842;4.386;2022-12-11T17:35:34;2.20;99.90
22526;DHT22;11429;50.842;4.386;2022-12-11T17:38:10;2.10;99.90
22526;DHT22;11429;50.842;4.386;2022-12-11T17:40:39;2.00;99.90
22526;DHT22;11429;50.842;4.386;2022-12-11T17:43:05;2.00;99.90
22526;DHT22;11429;50.842;4.386;2022-12-11T17:45:40;2.00;99.90
22526;DHT22;11429;50.842;4.386;2022-12-11T17:48:06;1.90;99.90
22526;DHT22;11429;50.842;4.386;2022-12-11T17:50:31;1.80;99.90
22526;DHT22;11429;50.842;4.386;2022-12-11T17:53:00;1.80;99.90
22526;DHT22;11429;50.842;4.386;2022-12-11T17:55:33;1.70;99.90
22526;DHT22;11429;50.842;4.386;2022-12-11T17:58:02;1.60;99.90